Time;durP1;ratioP1;P1;durP2;ratioP2;P2;SDS_P1;SDS_P2;PMS_P1;PMS_P2;Temp;Humidity;BMP_temperature;BMP_pressure;BME280_temperature;BME280_humidity;BME280_pressure;Samples;Min_cycle;Max_cycle;Signal;HPM_P1;HPM_P2
2023/12/27 00:01:29;;;;;;;;;21.50;18.00;;;;;;;;5096663;27;45864;-72
2023/12/27 00:03:54;;;;;;;;;5.75;4.75;;;;;;;;5095715;27;46242;-71
2023/12/27 00:06:20;;;;;;;;;10.00;9.25;;;;;;;;5096480;27;46009;-71
2023/12/27 00:08:46;;;;;;;;;8.75;8.75;;;;;;;;5096719;27;45379;-71
2023/12/27 00:11:11;;;;;;;;;4.25;4.00;;;;;;;;5096713;27;45305;-71
2023/12/27 00:13:36;;;;;;;;;17.50;15.75;;;;;;;;5097227;27;45441;-71
2023/12/27 00:16:02;;;;;;;;;19.50;19.25;;;;;;;;5096543;27;46013;-71
2023/12/27 00:18:27;;;;;;;;;18.75;15.00;;;;;;;;5096429;27;45393;-71
2023/12/27 00:20:53;;;;;;;;;13.00;13.00;;;;;;;;5097058;27;45448;-71
2023/12/27 00:23:18;;;;;;;;;17.50;14.75;;;;;;;;5098660;27;45535;-71
2023/12/27 00:25:43;;;;;;;;;8.50;8.50;;;;;;;;5099753;27;46117;-71
2023/12/27 00:28:09;;;;;;;;;13.00;11.25;;;;;;;;5099984;27;45348;-71
2023/12/27 00:30:34;;;;;;;;;12.25;11.25;;;;;;;;5100048;27;45675;-71
2023/12/27 00:33:00;;;;;;;;;7.00;6.75;;;;;;;;5100859;27;45520;-72
2023/12/27 00:35:25;;;;;;;;;2.00;2.00;;;;;;;;5100368;27;46145;-73
2023/12/27 00:37:50;;;;;;;;;2.25;2.25;;;;;;;;5100450;27;45830;-71
2023/12/27 00:40:16;;;;;;;;;2.00;2.00;;;;;;;;5099381;27;45400;-71
2023/12/27 00:42:41;;;;;;;;;5.25;2.75;;;;;;;;5100852;27;45382;-72
2023/12/27 00:45:07;;;;;;;;;2.00;2.00;;;;;;;;5100759;27;45881;-71
2023/12/27 00:47:32;;;;;;;;;2.00;2.00;;;;;;;;5100457;27;45186;-71
2023/12/27 00:49:58;;;;;;;;;2.00;1.00;;;;;;;;5100506;27;45525;-71
2023/12/27 00:52:23;;;;;;;;;4.00;3.00;;;;;;;;5100573;27;45378;-71
2023/12/27 00:54:49;;;;;;;;;1.00;1.00;;;;;;;;5100141;27;45424;-71
2023/12/27 00:57:14;;;;;;;;;3.50;3.50;;;;;;;;5100109;27;45466;-71
2023/12/27 00:59:39;;;;;;;;;2.00;2.00;;;;;;;;5100830;27;45450;-71
2023/12/27 01:02:06;;;;;;;;;3.00;3.00;;;;;;;;5100752;27;45214;-72
2023/12/27 01:04:33;;;;;;;;;1.75;1.75;;;;;;;;5100283;27;46211;-71
2023/12/27 01:06:58;;;;;;;;;2.00;2.00;;;;;;;;5099815;27;45496;-71
2023/12/27 01:09:23;;;;;;;;;2.75;2.75;;;;;;;;5100139;27;45369;-71
2023/12/27 01:11:49;;;;;;;;;3.00;3.00;;;;;;;;5099959;27;45584;-71
2023/12/27 01:14:16;;;;;;;;;2.00;2.00;;;;;;;;5099987;27;45345;-71
2023/12/27 01:16:42;;;;;;;;;2.00;2.00;;;;;;;;5100377;27;45520;-71
2023/12/27 01:19:07;;;;;;;;;2.00;2.00;;;;;;;;5100092;27;45322;-71
2023/12/27 01:21:32;;;;;;;;;1.00;1.00;;;;;;;;5100318;27;45498;-71
2023/12/27 01:23:58;;;;;;;;;1.00;1.00;;;;;;;;5099716;27;45334;-71
2023/12/27 01:26:23;;;;;;;;;1.00;1.00;;;;;;;;5099967;27;45465;-71
2023/12/27 01:28:48;;;;;;;;;1.00;1.00;;;;;;;;5100031;27;45490;-71
2023/12/27 01:31:14;;;;;;;;;1.50;1.00;;;;;;;;5100104;27;45283;-71
2023/12/27 01:33:39;;;;;;;;;0.00;0.00;;;;;;;;5098804;27;45447;-71
2023/12/27 01:36:06;;;;;;;;;1.00;1.00;;;;;;;;5099712;27;45534;-73
2023/12/27 01:38:31;;;;;;;;;1.00;1.00;;;;;;;;5099844;27;45615;-72
2023/12/27 01:40:56;;;;;;;;;0.50;0.50;;;;;;;;5099896;27;45388;-72
2023/12/27 01:43:22;;;;;;;;;0.00;0.00;;;;;;;;5099592;27;45332;-71
2023/12/27 01:45:50;;;;;;;;;1.50;1.00;;;;;;;;5099411;27;45215;-73
2023/12/27 01:48:16;;;;;;;;;1.00;1.00;;;;;;;;5099573;27;45308;-71
2023/12/27 01:50:42;;;;;;;;;1.00;1.00;;;;;;;;5100029;27;45464;-71
2023/12/27 01:53:08;;;;;;;;;1.00;1.00;;;;;;;;5099256;27;46130;-72
2023/12/27 01:55:34;;;;;;;;;1.00;1.00;;;;;;;;5099237;27;45542;-71
2023/12/27 01:58:00;;;;;;;;;0.50;0.00;;;;;;;;5099270;27;45282;-71
2023/12/27 02:00:25;;;;;;;;;0.00;0.00;;;;;;;;5099686;27;45407;-72
2023/12/27 02:02:51;;;;;;;;;0.25;0.25;;;;;;;;5098982;27;46013;-72
2023/12/27 02:05:16;;;;;;;;;1.00;1.00;;;;;;;;5099334;27;45368;-71
2023/12/27 02:07:42;;;;;;;;;0.00;0.00;;;;;;;;5099573;27;45622;-72
2023/12/27 02:10:08;;;;;;;;;1.00;1.00;;;;;;;;5099517;27;45210;-71
2023/12/27 02:12:33;;;;;;;;;0.00;0.00;;;;;;;;5099143;27;45430;-72
2023/12/27 02:14:58;;;;;;;;;1.00;1.00;;;;;;;;5099065;27;45345;-72
2023/12/27 02:17:26;;;;;;;;;0.00;0.00;;;;;;;;5099231;27;45486;-72
2023/12/27 02:19:52;;;;;;;;;0.00;0.00;;;;;;;;5099447;27;45368;-71
2023/12/27 02:22:22;;;;;;;;;0.00;0.00;;;;;;;;5098909;27;46150;-71
2023/12/27 02:24:49;;;;;;;;;0.50;0.25;;;;;;;;5098920;27;45486;-71
2023/12/27 02:27:14;;;;;;;;;0.00;0.00;;;;;;;;5099176;27;45479;-71
2023/12/27 02:29:40;;;;;;;;;1.00;0.00;;;;;;;;5099304;27;45495;-71
2023/12/27 02:32:05;;;;;;;;;0.00;0.00;;;;;;;;5098581;27;45436;-71
2023/12/27 02:34:31;;;;;;;;;0.00;0.00;;;;;;;;5098564;27;45487;-71
2023/12/27 02:36:56;;;;;;;;;1.00;1.00;;;;;;;;5099027;27;45419;-71
2023/12/27 02:39:21;;;;;;;;;0.00;0.00;;;;;;;;5099045;27;45361;-71
2023/12/27 02:41:47;;;;;;;;;0.25;0.25;;;;;;;;5099033;27;45871;-71
2023/12/27 02:44:12;;;;;;;;;0.00;0.00;;;;;;;;5098516;27;45400;-71
2023/12/27 02:46:38;;;;;;;;;0.00;0.00;;;;;;;;5098556;27;45342;-71
2023/12/27 02:49:03;;;;;;;;;1.00;0.00;;;;;;;;5098767;27;45268;-71
2023/12/27 02:51:28;;;;;;;;;1.00;0.00;;;;;;;;5098431;27;45401;-71
2023/12/27 02:53:54;;;;;;;;;0.00;0.00;;;;;;;;5096908;27;45575;-71
2023/12/27 02:56:19;;;;;;;;;0.00;0.00;;;;;;;;5098603;27;45412;-71
2023/12/27 02:58:45;;;;;;;;;1.00;0.00;;;;;;;;5098927;27;45451;-71
2023/12/27 03:01:10;;;;;;;;;0.00;0.00;;;;;;;;5098125;27;45433;-71
2023/12/27 03:03:35;;;;;;;;;1.75;1.25;;;;;;;;5098405;27;45450;-71
2023/12/27 03:06:01;;;;;;;;;2.00;2.00;;;;;;;;5098277;27;45168;-71
2023/12/27 03:08:26;;;;;;;;;0.50;0.00;;;;;;;;5098436;27;45470;-71
2023/12/27 03:10:51;;;;;;;;;0.00;0.00;;;;;;;;5098157;27;45416;-71
2023/12/27 03:13:17;;;;;;;;;1.00;0.00;;;;;;;;5098321;27;45556;-71
2023/12/27 03:15:42;;;;;;;;;0.00;0.00;;;;;;;;5097939;27;45435;-70
2023/12/27 03:18:07;;;;;;;;;0.00;0.00;;;;;;;;5097123;27;45326;-71
2023/12/27 03:20:33;;;;;;;;;0.00;0.00;;;;;;;;5098102;27;45451;-71
2023/12/27 03:22:58;;;;;;;;;0.00;0.00;;;;;;;;5098050;27;45320;-71
2023/12/27 03:25:23;;;;;;;;;0.00;0.00;;;;;;;;5098287;27;45446;-71
2023/12/27 03:27:49;;;;;;;;;0.00;0.00;;;;;;;;5098857;27;45421;-71
2023/12/27 03:30:14;;;;;;;;;0.00;0.00;;;;;;;;5097889;27;45877;-71
2023/12/27 03:32:39;;;;;;;;;0.00;0.00;;;;;;;;5097949;27;45266;-72
2023/12/27 03:35:05;;;;;;;;;0.00;0.00;;;;;;;;5098036;27;45483;-72
2023/12/27 03:37:30;;;;;;;;;0.00;0.00;;;;;;;;5098383;27;45351;-71
2023/12/27 03:39:56;;;;;;;;;0.00;0.00;;;;;;;;5098058;27;45929;-71
2023/12/27 03:42:21;;;;;;;;;0.00;0.00;;;;;;;;5097720;27;45502;-71
2023/12/27 03:44:52;;;;;;;;;0.00;0.00;;;;;;;;5098379;27;45262;-71
2023/12/27 03:47:18;;;;;;;;;0.00;0.00;;;;;;;;5098069;27;45513;-71
2023/12/27 03:49:43;;;;;;;;;0.00;0.00;;;;;;;;5097285;27;45464;-71
2023/12/27 03:52:09;;;;;;;;;0.00;0.00;;;;;;;;5097688;27;45461;-71
2023/12/27 03:54:34;;;;;;;;;0.00;0.00;;;;;;;;5097695;27;45540;-72
2023/12/27 03:57:00;;;;;;;;;0.00;0.00;;;;;;;;5100186;27;45377;-72
2023/12/27 03:59:25;;;;;;;;;0.00;0.00;;;;;;;;5101078;27;46141;-73
2023/12/27 04:01:50;;;;;;;;;0.00;0.00;;;;;;;;5101478;27;45446;-72
2023/12/27 04:04:16;;;;;;;;;0.00;0.00;;;;;;;;5101462;27;45401;-71
2023/12/27 04:06:41;;;;;;;;;0.00;0.00;;;;;;;;5101437;27;45332;-71
2023/12/27 04:09:07;;;;;;;;;0.33;0.00;;;;;;;;5101227;27;46045;-71
2023/12/27 04:11:32;;;;;;;;;0.00;0.00;;;;;;;;5101155;27;45711;-71
2023/12/27 04:13:58;;;;;;;;;0.00;0.00;;;;;;;;5100059;27;45733;-71
2023/12/27 04:16:23;;;;;;;;;0.67;0.00;;;;;;;;5101222;27;45652;-71
2023/12/27 04:18:48;;;;;;;;;0.00;0.00;;;;;;;;5101118;27;46118;-71
2023/12/27 04:21:14;;;;;;;;;0.67;0.00;;;;;;;;5101070;27;45344;-71
2023/12/27 04:23:39;;;;;;;;;0.00;0.00;;;;;;;;5099704;27;45480;-72
2023/12/27 04:26:05;;;;;;;;;0.00;0.00;;;;;;;;5100859;27;45422;-71
2023/12/27 04:28:30;;;;;;;;;0.00;0.00;;;;;;;;5100872;27;45455;-71
2023/12/27 04:30:56;;;;;;;;;0.00;0.00;;;;;;;;5100438;27;45461;-71
2023/12/27 04:33:21;;;;;;;;;0.00;0.00;;;;;;;;5101149;27;45481;-71
2023/12/27 04:35:47;;;;;;;;;0.00;0.00;;;;;;;;5101156;27;45487;-73
2023/12/27 04:38:13;;;;;;;;;0.00;0.00;;;;;;;;5100698;27;46022;-71
2023/12/27 04:40:39;;;;;;;;;0.00;0.00;;;;;;;;5100744;27;45495;-71
2023/12/27 04:43:05;;;;;;;;;0.00;0.00;;;;;;;;5100715;27;45371;-71
2023/12/27 04:45:30;;;;;;;;;0.00;0.00;;;;;;;;5100548;27;45508;-71
2023/12/27 04:47:56;;;;;;;;;0.00;0.00;;;;;;;;5100312;27;45916;-71
2023/12/27 04:50:21;;;;;;;;;0.33;0.00;;;;;;;;5100684;27;45405;-71
2023/12/27 04:52:46;;;;;;;;;0.00;0.00;;;;;;;;5100524;27;45506;-70
2023/12/27 04:55:12;;;;;;;;;0.00;0.00;;;;;;;;5100549;27;45510;-71
2023/12/27 04:57:37;;;;;;;;;0.00;0.00;;;;;;;;5100260;27;45419;-71
2023/12/27 05:00:04;;;;;;;;;0.00;0.00;;;;;;;;5100508;27;45491;-72
2023/12/27 05:02:29;;;;;;;;;0.00;0.00;;;;;;;;5100162;27;45328;-71
2023/12/27 05:04:54;;;;;;;;;0.00;0.00;;;;;;;;5100823;27;45310;-72
2023/12/27 05:07:20;;;;;;;;;0.00;0.00;;;;;;;;5100024;27;45204;-71
2023/12/27 05:09:45;;;;;;;;;0.00;0.00;;;;;;;;5100249;27;45475;-73
2023/12/27 05:12:10;;;;;;;;;0.00;0.00;;;;;;;;5100226;27;45441;-71
2023/12/27 05:14:36;;;;;;;;;0.00;0.00;;;;;;;;5100649;27;45482;-72
2023/12/27 05:17:02;;;;;;;;;0.00;0.00;;;;;;;;5099913;27;46185;-72
2023/12/27 05:19:27;;;;;;;;;0.00;0.00;;;;;;;;5099867;27;45427;-71
2023/12/27 05:21:52;;;;;;;;;0.00;0.00;;;;;;;;5100194;27;45500;-71
2023/12/27 05:24:18;;;;;;;;;0.00;0.00;;;;;;;;5100306;27;45553;-71
2023/12/27 05:26:43;;;;;;;;;0.00;0.00;;;;;;;;5099722;27;46031;-71
2023/12/27 05:29:08;;;;;;;;;0.00;0.00;;;;;;;;5099798;27;45451;-71
2023/12/27 05:31:34;;;;;;;;;0.00;0.00;;;;;;;;5079108;27;45542;-71
2023/12/27 05:33:59;;;;;;;;;0.00;0.00;;;;;;;;5079354;27;45425;-72
2023/12/27 05:36:25;;;;;;;;;0.00;0.00;;;;;;;;5079036;27;46058;-71
2023/12/27 05:38:50;;;;;;;;;0.00;0.00;;;;;;;;5078477;27;45410;-71
2023/12/27 05:41:17;;;;;;;;;0.00;0.00;;;;;;;;5077695;27;45441;-71
2023/12/27 05:43:43;;;;;;;;;0.00;0.00;;;;;;;;5079076;27;45390;-71
2023/12/27 05:46:08;;;;;;;;;0.00;0.00;;;;;;;;5078991;27;45467;-72
2023/12/27 05:48:33;;;;;;;;;0.00;0.00;;;;;;;;5078826;27;45310;-71
2023/12/27 05:50:59;;;;;;;;;0.00;0.00;;;;;;;;5079335;27;45231;-72
2023/12/27 05:53:24;;;;;;;;;0.00;0.00;;;;;;;;5079741;27;45440;-73
2023/12/27 05:55:49;;;;;;;;;0.00;0.00;;;;;;;;5078885;27;46231;-72
2023/12/27 05:58:15;;;;;;;;;0.00;0.00;;;;;;;;5078857;27;45448;-72
2023/12/27 06:00:40;;;;;;;;;0.00;0.00;;;;;;;;5078959;27;45356;-72
2023/12/27 06:03:05;;;;;;;;;0.00;0.00;;;;;;;;5079048;27;45411;-72
2023/12/27 06:05:31;;;;;;;;;0.00;0.00;;;;;;;;5078790;27;45605;-72
2023/12/27 06:07:56;;;;;;;;;0.00;0.00;;;;;;;;5079216;27;45396;-73
2023/12/27 06:10:22;;;;;;;;;0.00;0.00;;;;;;;;5079151;27;45459;-72
2023/12/27 06:12:47;;;;;;;;;0.00;0.00;;;;;;;;5079044;27;45286;-72
2023/12/27 06:15:13;;;;;;;;;0.00;0.00;;;;;;;;5078560;27;45474;-72
2023/12/27 06:17:38;;;;;;;;;0.00;0.00;;;;;;;;5078546;27;45440;-71
2023/12/27 06:20:04;;;;;;;;;0.00;0.00;;;;;;;;5078111;27;45317;-72
2023/12/27 06:22:30;;;;;;;;;0.00;0.00;;;;;;;;5079055;27;45653;-71
2023/12/27 06:24:55;;;;;;;;;0.00;0.00;;;;;;;;5078768;27;45566;-71
2023/12/27 06:27:21;;;;;;;;;0.00;0.00;;;;;;;;5078330;27;45456;-71
2023/12/27 06:29:46;;;;;;;;;1.00;1.00;;;;;;;;5078513;27;45590;-72
2023/12/27 06:32:12;;;;;;;;;0.67;0.00;;;;;;;;5078556;27;45339;-71
2023/12/27 06:34:37;;;;;;;;;0.67;0.00;;;;;;;;5078410;27;45941;-72
2023/12/27 06:37:03;;;;;;;;;0.33;0.00;;;;;;;;5078334;27;45397;-71
2023/12/27 06:39:28;;;;;;;;;1.67;0.00;;;;;;;;5078807;27;45504;-71
2023/12/27 06:41:54;;;;;;;;;1.75;1.75;;;;;;;;5078562;27;45317;-71
2023/12/27 06:44:20;;;;;;;;;3.00;3.00;;;;;;;;5078239;27;45322;-71
2023/12/27 06:46:45;;;;;;;;;1.00;1.00;;;;;;;;5077885;27;45386;-71
2023/12/27 06:49:10;;;;;;;;;2.00;2.00;;;;;;;;5078199;27;45255;-71
2023/12/27 06:51:36;;;;;;;;;1.75;1.75;;;;;;;;5078487;27;45282;-71
2023/12/27 06:54:01;;;;;;;;;1.00;1.00;;;;;;;;5078243;27;45392;-71
2023/12/27 06:56:26;;;;;;;;;1.00;1.00;;;;;;;;5078112;27;46272;-71
2023/12/27 06:58:52;;;;;;;;;1.75;1.00;;;;;;;;5078002;27;45637;-71
2023/12/27 07:01:17;;;;;;;;;0.00;0.00;;;;;;;;5078427;27;45220;-71
2023/12/27 07:03:43;;;;;;;;;1.00;0.00;;;;;;;;5076681;28;45575;-71
2023/12/27 07:06:08;;;;;;;;;3.75;3.50;;;;;;;;5077996;27;45451;-71
2023/12/27 07:08:34;;;;;;;;;3.00;2.00;;;;;;;;5078150;27;45376;-71
2023/12/27 07:10:59;;;;;;;;;3.50;3.00;;;;;;;;5078428;27;45300;-71
2023/12/27 07:13:25;;;;;;;;;2.00;1.00;;;;;;;;5077603;27;45575;-72
2023/12/27 07:15:50;;;;;;;;;1.00;1.00;;;;;;;;5077516;27;45747;-71
2023/12/27 07:18:15;;;;;;;;;0.00;0.00;;;;;;;;5077993;27;45446;-72
2023/12/27 07:20:41;;;;;;;;;4.00;3.75;;;;;;;;5078105;27;45452;-71
2023/12/27 07:23:06;;;;;;;;;2.00;2.00;;;;;;;;5089693;27;45514;-71
2023/12/27 07:25:31;;;;;;;;;3.00;3.00;;;;;;;;5095925;27;45361;-71
2023/12/27 07:27:57;;;;;;;;;1.00;0.00;;;;;;;;5097337;27;45444;-72
2023/12/27 07:30:23;;;;;;;;;1.00;0.00;;;;;;;;5097329;27;45565;-72
2023/12/27 07:32:48;;;;;;;;;1.00;0.00;;;;;;;;5097228;27;45437;-72
2023/12/27 07:35:14;;;;;;;;;0.00;0.00;;;;;;;;5097231;27;45965;-71
2023/12/27 07:37:45;;;;;;;;;0.00;0.00;;;;;;;;5097305;27;45341;-71
2023/12/27 07:40:11;;;;;;;;;0.00;0.00;;;;;;;;5097478;27;45493;-71
2023/12/27 07:42:37;;;;;;;;;0.00;0.00;;;;;;;;5096981;27;45973;-71
2023/12/27 07:45:03;;;;;;;;;0.00;0.00;;;;;;;;5097300;27;45326;-72
2023/12/27 07:47:29;;;;;;;;;0.00;0.00;;;;;;;;5097245;27;45451;-72
2023/12/27 07:49:55;;;;;;;;;0.00;0.00;;;;;;;;5096902;27;45426;-71
2023/12/27 07:52:21;;;;;;;;;0.00;0.00;;;;;;;;5096890;27;46306;-70
2023/12/27 07:54:46;;;;;;;;;0.00;0.00;;;;;;;;5096740;27;45400;-72
2023/12/27 07:57:12;;;;;;;;;0.00;0.00;;;;;;;;5096907;27;45522;-71
2023/12/27 07:59:37;;;;;;;;;0.00;0.00;;;;;;;;5097228;27;45309;-71
2023/12/27 08:02:03;;;;;;;;;0.00;0.00;;;;;;;;5096650;27;45856;-70
2023/12/27 08:04:28;;;;;;;;;0.00;0.00;;;;;;;;5096684;27;45384;-71
2023/12/27 08:06:54;;;;;;;;;0.00;0.00;;;;;;;;5095410;27;45497;-71
2023/12/27 08:09:19;;;;;;;;;1.00;0.00;;;;;;;;5097070;27;45331;-70
2023/12/27 08:11:45;;;;;;;;;1.00;1.00;;;;;;;;5096327;27;46007;-71
2023/12/27 08:14:10;;;;;;;;;1.00;0.00;;;;;;;;5096740;27;45755;-71
2023/12/27 08:16:36;;;;;;;;;3.00;2.00;;;;;;;;5097016;27;45404;-70
2023/12/27 08:19:01;;;;;;;;;0.00;0.00;;;;;;;;5097244;27;45307;-70
2023/12/27 08:21:27;;;;;;;;;0.00;0.00;;;;;;;;5096504;27;45893;-70
2023/12/27 08:23:53;;;;;;;;;0.00;0.00;;;;;;;;5096331;27;45520;-70
2023/12/27 08:26:19;;;;;;;;;0.00;0.00;;;;;;;;5096527;27;45544;-70
2023/12/27 08:28:45;;;;;;;;;0.00;0.00;;;;;;;;5095270;27;45617;-71
2023/12/27 08:31:12;;;;;;;;;1.00;1.00;;;;;;;;5096094;27;46526;-69
2023/12/27 08:33:38;;;;;;;;;0.00;0.00;;;;;;;;5096256;27;45478;-70
2023/12/27 08:36:04;;;;;;;;;0.00;0.00;;;;;;;;5096473;27;45518;-70
2023/12/27 08:38:29;;;;;;;;;1.00;1.00;;;;;;;;5096415;27;45503;-70
2023/12/27 08:40:55;;;;;;;;;1.00;1.00;;;;;;;;5096332;27;45435;-70
2023/12/27 08:43:21;;;;;;;;;1.00;1.00;;;;;;;;5098991;27;45471;-70
2023/12/27 08:45:47;;;;;;;;;2.67;1.00;;;;;;;;5097023;27;45313;-69
2023/12/27 08:48:13;;;;;;;;;1.00;1.00;;;;;;;;5099857;27;45392;-70
2023/12/27 08:50:40;;;;;;;;;1.00;0.00;;;;;;;;5099597;27;45376;-71
2023/12/27 08:53:06;;;;;;;;;0.00;0.00;;;;;;;;5099771;27;45467;-70
2023/12/27 08:55:31;;;;;;;;;4.00;4.00;;;;;;;;5099647;27;45223;-71
2023/12/27 08:57:57;;;;;;;;;1.00;1.00;;;;;;;;5099733;27;45318;-70
2023/12/27 09:00:24;;;;;;;;;0.00;0.00;;;;;;;;5099325;27;45509;-72
2023/12/27 09:02:49;;;;;;;;;0.00;0.00;;;;;;;;5099489;27;45382;-71
2023/12/27 09:05:14;;;;;;;;;0.00;0.00;;;;;;;;5099699;27;45303;-71
2023/12/27 09:07:40;;;;;;;;;0.00;0.00;;;;;;;;5098383;27;45469;-70
2023/12/27 09:10:05;;;;;;;;;1.67;1.33;;;;;;;;5099499;27;46132;-71
2023/12/27 09:12:31;;;;;;;;;1.00;0.00;;;;;;;;5099331;27;45794;-71
2023/12/27 09:14:57;;;;;;;;;1.33;1.00;;;;;;;;5099095;27;46533;-72
2023/12/27 09:17:22;;;;;;;;;1.00;1.00;;;;;;;;5099200;27;45619;-71
2023/12/27 09:19:47;;;;;;;;;1.00;1.00;;;;;;;;5095963;27;45585;-72
2023/12/27 09:22:13;;;;;;;;;7.00;5.00;;;;;;;;5098833;27;45396;-71
2023/12/27 09:24:41;;;;;;;;;3.33;3.00;;;;;;;;5098140;27;45502;-73
2023/12/27 09:27:06;;;;;;;;;5.00;5.00;;;;;;;;5099266;27;45584;-72
2023/12/27 09:29:32;;;;;;;;;2.33;2.00;;;;;;;;5098818;27;45425;-72
2023/12/27 09:31:57;;;;;;;;;1.00;1.00;;;;;;;;5098114;27;45511;-72
2023/12/27 09:34:22;;;;;;;;;4.00;4.00;;;;;;;;5097542;27;45335;-71
2023/12/27 09:36:48;;;;;;;;;6.67;6.33;;;;;;;;5099340;27;45442;-72
2023/12/27 09:39:13;;;;;;;;;10.33;9.00;;;;;;;;5099352;27;45439;-71
2023/12/27 09:41:42;;;;;;;;;21.00;17.33;;;;;;;;5099762;27;45552;-72
2023/12/27 09:44:09;;;;;;;;;21.33;16.33;;;;;;;;5099822;27;45322;-72
2023/12/27 09:46:35;;;;;;;;;7.00;6.33;;;;;;;;5098956;27;45404;-72
2023/12/27 09:49:01;;;;;;;;;13.00;11.67;;;;;;;;5098801;27;45344;-71
2023/12/27 09:51:28;;;;;;;;;3.00;2.00;;;;;;;;5098279;27;45432;-71
2023/12/27 09:53:53;;;;;;;;;5.33;5.00;;;;;;;;5097020;27;45502;-70
2023/12/27 09:56:19;;;;;;;;;10.33;9.67;;;;;;;;5098196;27;45363;-70
2023/12/27 09:58:45;;;;;;;;;3.00;2.33;;;;;;;;5098191;27;45416;-71
2023/12/27 10:01:11;;;;;;;;;0.00;0.00;;;;;;;;5098856;27;45547;-70
2023/12/27 10:03:39;;;;;;;;;5.33;5.00;;;;;;;;5098475;27;45952;-71
2023/12/27 10:06:14;;;;;;;;;1.67;1.67;;;;;;;;5098506;27;45379;-71
2023/12/27 10:08:39;;;;;;;;;2.33;2.00;;;;;;;;5098918;27;45212;-71
2023/12/27 10:11:07;;;;;;;;;3.67;3.67;;;;;;;;5098212;27;45604;-71
2023/12/27 10:13:35;;;;;;;;;0.00;0.00;;;;;;;;5098706;27;45271;-71
2023/12/27 10:16:03;;;;;;;;;0.00;0.00;;;;;;;;5099068;27;45312;-71
2023/12/27 10:18:30;;;;;;;;;2.00;2.00;;;;;;;;5099014;27;45331;-71
2023/12/27 10:20:56;;;;;;;;;2.33;2.00;;;;;;;;5103612;27;45342;-71
2023/12/27 10:23:21;;;;;;;;;2.00;2.00;;;;;;;;5100239;27;45428;-71
2023/12/27 10:25:47;;;;;;;;;0.00;0.00;;;;;;;;5098742;27;45291;-71
2023/12/27 10:28:12;;;;;;;;;4.00;3.67;;;;;;;;5096272;27;45533;-71
2023/12/27 10:30:37;;;;;;;;;1.00;1.00;;;;;;;;5097367;27;45511;-71
2023/12/27 10:33:03;;;;;;;;;5.67;5.33;;;;;;;;5097984;27;45222;-71
2023/12/27 10:35:29;;;;;;;;;0.33;0.00;;;;;;;;5098420;27;45310;-71
2023/12/27 10:38:01;;;;;;;;;1.00;0.33;;;;;;;;5098305;27;45896;-71
2023/12/27 10:40:27;;;;;;;;;1.00;1.00;;;;;;;;5097301;27;45399;-70
2023/12/27 10:42:53;;;;;;;;;0.00;0.00;;;;;;;;5097648;27;45515;-71
2023/12/27 10:45:20;;;;;;;;;1.00;0.00;;;;;;;;5097827;27;45335;-69
2023/12/27 10:47:47;;;;;;;;;0.00;0.00;;;;;;;;5097721;27;46064;-70
2023/12/27 10:50:15;;;;;;;;;0.00;0.00;;;;;;;;5098723;27;45362;-70
2023/12/27 10:52:41;;;;;;;;;0.00;0.00;;;;;;;;5098485;27;45321;-70
2023/12/27 10:55:08;;;;;;;;;0.00;0.00;;;;;;;;5097860;27;45418;-71
2023/12/27 10:57:35;;;;;;;;;2.33;2.33;;;;;;;;5096980;27;45551;-71
2023/12/27 11:00:01;;;;;;;;;0.00;0.00;;;;;;;;5096055;27;45553;-71
2023/12/27 11:02:28;;;;;;;;;0.00;0.00;;;;;;;;5097339;27;45447;-71
2023/12/27 11:04:54;;;;;;;;;0.00;0.00;;;;;;;;5097469;27;45352;-71
2023/12/27 11:07:21;;;;;;;;;0.00;0.00;;;;;;;;5096663;27;46228;-70
2023/12/27 11:09:47;;;;;;;;;0.33;0.00;;;;;;;;5097726;27;45381;-71
2023/12/27 11:12:16;;;;;;;;;0.00;0.00;;;;;;;;5097285;27;45484;-71
2023/12/27 11:14:42;;;;;;;;;0.00;0.00;;;;;;;;5098407;27;45335;-70
2023/12/27 11:17:09;;;;;;;;;0.00;0.00;;;;;;;;5097669;27;45621;-71
2023/12/27 11:19:35;;;;;;;;;1.00;0.00;;;;;;;;5097495;27;45727;-71
2023/12/27 11:22:01;;;;;;;;;0.00;0.00;;;;;;;;5096221;27;45364;-71
2023/12/27 11:24:27;;;;;;;;;0.00;0.00;;;;;;;;5097670;27;45474;-70
2023/12/27 11:26:59;;;;;;;;;0.00;0.00;;;;;;;;5097452;27;45368;-70
2023/12/27 11:29:25;;;;;;;;;0.00;0.00;;;;;;;;5097157;27;45414;-70
2023/12/27 11:31:52;;;;;;;;;0.00;0.00;;;;;;;;5097746;27;45345;-70
2023/12/27 11:34:18;;;;;;;;;1.00;1.00;;;;;;;;5097648;27;45432;-71
2023/12/27 11:36:45;;;;;;;;;0.00;0.00;;;;;;;;5097825;27;45427;-69
2023/12/27 11:39:18;;;;;;;;;1.00;1.00;;;;;;;;5097597;27;45321;-70
2023/12/27 11:41:44;;;;;;;;;0.00;0.00;;;;;;;;5096459;27;45470;-70
2023/12/27 11:44:09;;;;;;;;;1.00;0.00;;;;;;;;5096311;27;45606;-70
2023/12/27 11:46:34;;;;;;;;;1.67;0.33;;;;;;;;5097471;27;45942;-70
2023/12/27 11:49:00;;;;;;;;;1.00;1.00;;;;;;;;5097529;27;45437;-70
2023/12/27 11:51:36;;;;;;;;;0.00;0.00;;;;;;;;5097757;27;45490;-70
2023/12/27 11:54:02;;;;;;;;;6.00;5.00;;;;;;;;5097480;27;45489;-70
2023/12/27 11:56:32;;;;;;;;;4.67;4.67;;;;;;;;5097059;27;46334;-70
2023/12/27 11:58:58;;;;;;;;;3.00;1.00;;;;;;;;5097375;27;45303;-71
2023/12/27 12:01:25;;;;;;;;;0.00;0.00;;;;;;;;5097457;27;45434;-70
2023/12/27 12:03:56;;;;;;;;;1.33;1.00;;;;;;;;5096515;27;45520;-69
2023/12/27 12:06:34;;;;;;;;;1.00;1.00;;;;;;;;5096224;27;46036;-70
2023/12/27 12:09:00;;;;;;;;;30.25;29.75;;;;;;;;5096499;27;45681;-73
2023/12/27 12:11:26;;;;;;;;;2.00;2.00;;;;;;;;5096444;27;45366;-73
2023/12/27 12:13:51;;;;;;;;;0.00;0.00;;;;;;;;5095685;27;45243;-72
2023/12/27 12:16:17;;;;;;;;;2.67;2.00;;;;;;;;5096365;27;46118;-72
2023/12/27 12:18:43;;;;;;;;;0.00;0.00;;;;;;;;5099045;27;45380;-73
2023/12/27 12:21:09;;;;;;;;;3.00;2.33;;;;;;;;5100173;27;45496;-76
2023/12/27 12:23:34;;;;;;;;;0.00;0.00;;;;;;;;5099744;27;45472;-75
2023/12/27 12:26:01;;;;;;;;;1.00;1.00;;;;;;;;5098184;27;46247;-76
2023/12/27 12:28:27;;;;;;;;;0.00;0.00;;;;;;;;5099810;27;45460;-74
2023/12/27 12:30:54;;;;;;;;;0.00;0.00;;;;;;;;5099920;27;45437;-75
2023/12/27 12:33:20;;;;;;;;;0.00;0.00;;;;;;;;5097409;27;45503;-75
2023/12/27 12:35:46;;;;;;;;;0.00;0.00;;;;;;;;5099030;27;45468;-75
2023/12/27 12:38:11;;;;;;;;;0.00;0.00;;;;;;;;5098158;27;45554;-77
2023/12/27 12:40:36;;;;;;;;;0.33;0.00;;;;;;;;5100317;27;45877;-75
2023/12/27 12:43:03;;;;;;;;;0.00;0.00;;;;;;;;5100071;27;45254;-76
2023/12/27 12:45:29;;;;;;;;;0.00;0.00;;;;;;;;5099786;27;46366;-76
2023/12/27 12:47:54;;;;;;;;;0.00;0.00;;;;;;;;5099668;27;45511;-74
2023/12/27 12:50:20;;;;;;;;;0.00;0.00;;;;;;;;5100055;27;45512;-75
2023/12/27 12:52:45;;;;;;;;;0.00;0.00;;;;;;;;5099207;27;45458;-75
2023/12/27 12:55:12;;;;;;;;;0.00;0.00;;;;;;;;5099688;27;46353;-75
2023/12/27 12:57:38;;;;;;;;;0.00;0.00;;;;;;;;5099798;27;45340;-75
2023/12/27 13:00:06;;;;;;;;;0.00;0.00;;;;;;;;5099995;27;45476;-75
2023/12/27 13:02:32;;;;;;;;;0.00;0.00;;;;;;;;5099970;27;45390;-75
2023/12/27 13:05:00;;;;;;;;;0.33;0.00;;;;;;;;5099775;27;45642;-75
2023/12/27 13:07:26;;;;;;;;;0.00;0.00;;;;;;;;5081506;27;45494;-75
2023/12/27 13:09:55;;;;;;;;;1.33;0.67;;;;;;;;5099779;27;45318;-75
2023/12/27 13:12:24;;;;;;;;;0.00;0.00;;;;;;;;5099603;27;45426;-75
2023/12/27 13:14:50;;;;;;;;;0.00;0.00;;;;;;;;5099339;27;45646;-75
2023/12/27 13:17:16;;;;;;;;;0.00;0.00;;;;;;;;5099508;27;45374;-75
2023/12/27 13:19:41;;;;;;;;;1.67;1.67;;;;;;;;5099402;27;45523;-74
2023/12/27 13:22:08;;;;;;;;;0.00;0.00;;;;;;;;5099780;27;45436;-74
2023/12/27 13:24:33;;;;;;;;;0.00;0.00;;;;;;;;5099077;27;46132;-75
2023/12/27 13:26:58;;;;;;;;;0.00;0.00;;;;;;;;5099022;27;45409;-75
2023/12/27 13:29:24;;;;;;;;;0.00;0.00;;;;;;;;5095277;27;45481;-75
2023/12/27 13:31:49;;;;;;;;;0.00;0.00;;;;;;;;5058764;28;45501;-75
2023/12/27 13:34:14;;;;;;;;;0.00;0.00;;;;;;;;5058005;28;45512;-75
2023/12/27 13:36:40;;;;;;;;;0.00;0.00;;;;;;;;5057964;28;45581;-75
2023/12/27 13:39:05;;;;;;;;;0.00;0.00;;;;;;;;5040257;28;45493;-74
2023/12/27 13:41:32;;;;;;;;;0.00;0.00;;;;;;;;5056760;28;45481;-74
2023/12/27 13:43:57;;;;;;;;;0.00;0.00;;;;;;;;5058022;28;46093;-74
2023/12/27 13:46:22;;;;;;;;;0.00;0.00;;;;;;;;5058104;28;45498;-75
2023/12/27 13:48:48;;;;;;;;;0.00;0.00;;;;;;;;5059082;28;45414;-75
2023/12/27 13:51:14;;;;;;;;;0.00;0.00;;;;;;;;5058521;28;45352;-75
2023/12/27 13:53:39;;;;;;;;;0.00;0.00;;;;;;;;5063830;28;45580;-75
2023/12/27 13:56:05;;;;;;;;;0.00;0.00;;;;;;;;5078553;27;45523;-75
2023/12/27 13:58:31;;;;;;;;;1.00;0.00;;;;;;;;5078274;27;45310;-75
2023/12/27 14:00:57;;;;;;;;;0.00;0.00;;;;;;;;5078522;27;46292;-75
2023/12/27 14:03:22;;;;;;;;;0.00;0.00;;;;;;;;5078113;27;45710;-75
2023/12/27 14:05:48;;;;;;;;;0.00;0.00;;;;;;;;5078419;27;45483;-74
2023/12/27 14:08:13;;;;;;;;;0.00;0.00;;;;;;;;5078077;27;45414;-75
2023/12/27 14:10:38;;;;;;;;;0.00;0.00;;;;;;;;5078407;27;45527;-74
2023/12/27 14:13:04;;;;;;;;;3.00;3.00;;;;;;;;5077839;27;46279;-76
2023/12/27 14:15:29;;;;;;;;;0.00;0.00;;;;;;;;5078029;28;45440;-75
2023/12/27 14:17:55;;;;;;;;;0.00;0.00;;;;;;;;5078084;27;45332;-75
2023/12/27 14:20:20;;;;;;;;;0.00;0.00;;;;;;;;5078675;27;45483;-75
2023/12/27 14:22:46;;;;;;;;;0.00;0.00;;;;;;;;5078038;27;45405;-75
2023/12/27 14:25:11;;;;;;;;;0.00;0.00;;;;;;;;5077845;27;45487;-74
2023/12/27 14:27:40;;;;;;;;;0.00;0.00;;;;;;;;5076758;28;45531;-73
2023/12/27 14:30:06;;;;;;;;;0.00;0.00;;;;;;;;5076586;28;45216;-74
2023/12/27 14:32:31;;;;;;;;;2.00;2.00;;;;;;;;5077278;28;46599;-73
2023/12/27 14:34:56;;;;;;;;;2.00;1.00;;;;;;;;5077426;27;45384;-74